sensor_id;sensor_type;location;lat;lon;timestamp;P1;durP1;ratioP1;P2;durP2;ratioP2
24145;SDS011;12308;50.948;4.706;2023-04-25T00:00:33;25.23;;;8.55;;
24145;SDS011;12308;50.948;4.706;2023-04-25T00:02:59;25.33;;;7.95;;
24145;SDS011;12308;50.948;4.706;2023-04-25T00:05:26;30.73;;;8.55;;
24145;SDS011;12308;50.948;4.706;2023-04-25T00:07:52;33.08;;;8.70;;
24145;SDS011;12308;50.948;4.706;2023-04-25T00:10:18;32.85;;;9.23;;
24145;SDS011;12308;50.948;4.706;2023-04-25T00:12:45;25.25;;;7.97;;
24145;SDS011;12308;50.948;4.706;2023-04-25T00:15:11;32.60;;;8.85;;
24145;SDS011;12308;50.948;4.706;2023-04-25T00:17:37;31.35;;;8.65;;
24145;SDS011;12308;50.948;4.706;2023-04-25T00:20:06;34.22;;;9.52;;
24145;SDS011;12308;50.948;4.706;2023-04-25T00:22:34;24.38;;;8.43;;
24145;SDS011;12308;50.948;4.706;2023-04-25T00:25:02;28.85;;;8.68;;
24145;SDS011;12308;50.948;4.706;2023-04-25T00:27:31;28.63;;;8.48;;
24145;SDS011;12308;50.948;4.706;2023-04-25T00:29:57;26.13;;;8.43;;
24145;SDS011;12308;50.948;4.706;2023-04-25T00:32:23;34.53;;;9.10;;
24145;SDS011;12308;50.948;4.706;2023-04-25T00:34:48;25.13;;;8.45;;
24145;SDS011;12308;50.948;4.706;2023-04-25T00:37:14;30.67;;;8.82;;
24145;SDS011;12308;50.948;4.706;2023-04-25T00:39:40;36.40;;;9.25;;
24145;SDS011;12308;50.948;4.706;2023-04-25T00:42:06;26.67;;;8.30;;
24145;SDS011;12308;50.948;4.706;2023-04-25T00:44:33;24.45;;;8.13;;
24145;SDS011;12308;50.948;4.706;2023-04-25T00:47:00;29.38;;;9.05;;
24145;SDS011;12308;50.948;4.706;2023-04-25T00:49:27;28.23;;;8.88;;
24145;SDS011;12308;50.948;4.706;2023-04-25T00:51:53;22.40;;;8.48;;
24145;SDS011;12308;50.948;4.706;2023-04-25T00:54:19;22.77;;;8.70;;
24145;SDS011;12308;50.948;4.706;2023-04-25T00:56:45;30.25;;;8.90;;
24145;SDS011;12308;50.948;4.706;2023-04-25T00:59:11;31.80;;;9.85;;
24145;SDS011;12308;50.948;4.706;2023-04-25T01:01:38;32.58;;;9.40;;
24145;SDS011;12308;50.948;4.706;2023-04-25T01:04:04;34.38;;;9.18;;
24145;SDS011;12308;50.948;4.706;2023-04-25T01:06:30;27.77;;;9.35;;
24145;SDS011;12308;50.948;4.706;2023-04-25T01:08:56;28.77;;;8.82;;
24145;SDS011;12308;50.948;4.706;2023-04-25T01:11:23;32.90;;;9.68;;
24145;SDS011;12308;50.948;4.706;2023-04-25T01:13:50;36.90;;;9.63;;
24145;SDS011;12308;50.948;4.706;2023-04-25T01:16:16;31.30;;;9.85;;
24145;SDS011;12308;50.948;4.706;2023-04-25T01:18:41;24.40;;;8.85;;
24145;SDS011;12308;50.948;4.706;2023-04-25T01:21:10;27.30;;;9.60;;
24145;SDS011;12308;50.948;4.706;2023-04-25T01:23:41;31.77;;;10.00;;
24145;SDS011;12308;50.948;4.706;2023-04-25T01:26:08;27.98;;;9.25;;
24145;SDS011;12308;50.948;4.706;2023-04-25T01:28:35;36.03;;;9.85;;
24145;SDS011;12308;50.948;4.706;2023-04-25T01:31:01;25.13;;;9.02;;
24145;SDS011;12308;50.948;4.706;2023-04-25T01:33:27;28.75;;;9.75;;
24145;SDS011;12308;50.948;4.706;2023-04-25T01:35:53;28.08;;;10.10;;
24145;SDS011;12308;50.948;4.706;2023-04-25T01:38:19;28.50;;;9.88;;
24145;SDS011;12308;50.948;4.706;2023-04-25T01:40:45;29.58;;;10.30;;
24145;SDS011;12308;50.948;4.706;2023-04-25T01:43:14;30.17;;;9.95;;
24145;SDS011;12308;50.948;4.706;2023-04-25T01:45:43;35.78;;;9.73;;
24145;SDS011;12308;50.948;4.706;2023-04-25T01:48:09;36.22;;;10.77;;
24145;SDS011;12308;50.948;4.706;2023-04-25T01:50:39;32.40;;;10.05;;
24145;SDS011;12308;50.948;4.706;2023-04-25T01:53:06;33.67;;;9.73;;
24145;SDS011;12308;50.948;4.706;2023-04-25T01:55:35;22.67;;;9.00;;
24145;SDS011;12308;50.948;4.706;2023-04-25T01:58:02;27.30;;;9.05;;
24145;SDS011;12308;50.948;4.706;2023-04-25T02:00:28;31.65;;;9.45;;
24145;SDS011;12308;50.948;4.706;2023-04-25T02:02:57;33.50;;;9.70;;
24145;SDS011;12308;50.948;4.706;2023-04-25T02:05:23;32.10;;;10.57;;
24145;SDS011;12308;50.948;4.706;2023-04-25T02:07:49;32.97;;;8.88;;
24145;SDS011;12308;50.948;4.706;2023-04-25T02:10:14;36.72;;;8.45;;
24145;SDS011;12308;50.948;4.706;2023-04-25T02:12:40;28.25;;;8.80;;
24145;SDS011;12308;50.948;4.706;2023-04-25T02:15:06;30.13;;;8.65;;
24145;SDS011;12308;50.948;4.706;2023-04-25T02:17:32;36.05;;;9.10;;
24145;SDS011;12308;50.948;4.706;2023-04-25T02:19:58;48.83;;;9.68;;
24145;SDS011;12308;50.948;4.706;2023-04-25T02:22:24;35.75;;;9.05;;
24145;SDS011;12308;50.948;4.706;2023-04-25T02:24:51;26.98;;;9.70;;
24145;SDS011;12308;50.948;4.706;2023-04-25T02:27:18;26.35;;;8.48;;
24145;SDS011;12308;50.948;4.706;2023-04-25T02:29:43;39.33;;;8.55;;
24145;SDS011;12308;50.948;4.706;2023-04-25T02:32:09;35.35;;;7.68;;
24145;SDS011;12308;50.948;4.706;2023-04-25T02:34:34;26.23;;;7.97;;
24145;SDS011;12308;50.948;4.706;2023-04-25T02:37:00;37.97;;;8.27;;
24145;SDS011;12308;50.948;4.706;2023-04-25T02:39:26;32.97;;;7.53;;
24145;SDS011;12308;50.948;4.706;2023-04-25T02:41:52;25.17;;;7.60;;
24145;SDS011;12308;50.948;4.706;2023-04-25T02:44:17;29.98;;;8.05;;
24145;SDS011;12308;50.948;4.706;2023-04-25T02:46:43;28.60;;;7.97;;
24145;SDS011;12308;50.948;4.706;2023-04-25T02:49:09;34.92;;;8.32;;
24145;SDS011;12308;50.948;4.706;2023-04-25T02:51:35;28.40;;;7.35;;
24145;SDS011;12308;50.948;4.706;2023-04-25T02:54:00;32.90;;;8.57;;
24145;SDS011;12308;50.948;4.706;2023-04-25T02:56:26;30.75;;;7.28;;
24145;SDS011;12308;50.948;4.706;2023-04-25T02:58:52;38.70;;;7.43;;
24145;SDS011;12308;50.948;4.706;2023-04-25T03:01:18;39.13;;;8.05;;
24145;SDS011;12308;50.948;4.706;2023-04-25T03:03:44;26.15;;;7.35;;
24145;SDS011;12308;50.948;4.706;2023-04-25T03:06:10;36.78;;;7.82;;
24145;SDS011;12308;50.948;4.706;2023-04-25T03:08:35;35.72;;;8.45;;
24145;SDS011;12308;50.948;4.706;2023-04-25T03:11:01;33.08;;;8.57;;
24145;SDS011;12308;50.948;4.706;2023-04-25T03:13:27;36.97;;;7.90;;
24145;SDS011;12308;50.948;4.706;2023-04-25T03:15:54;30.65;;;7.93;;
24145;SDS011;12308;50.948;4.706;2023-04-25T03:18:20;25.95;;;7.55;;
24145;SDS011;12308;50.948;4.706;2023-04-25T03:20:46;35.50;;;8.27;;
24145;SDS011;12308;50.948;4.706;2023-04-25T03:23:12;39.15;;;8.38;;
24145;SDS011;12308;50.948;4.706;2023-04-25T03:25:37;46.35;;;9.30;;
24145;SDS011;12308;50.948;4.706;2023-04-25T03:28:03;33.40;;;7.50;;
24145;SDS011;12308;50.948;4.706;2023-04-25T03:30:29;38.33;;;7.38;;
24145;SDS011;12308;50.948;4.706;2023-04-25T03:32:54;36.60;;;7.25;;
24145;SDS011;12308;50.948;4.706;2023-04-25T03:35:20;35.15;;;7.78;;
24145;SDS011;12308;50.948;4.706;2023-04-25T03:37:46;34.50;;;8.10;;
24145;SDS011;12308;50.948;4.706;2023-04-25T03:40:11;41.30;;;8.30;;
24145;SDS011;12308;50.948;4.706;2023-04-25T03:42:37;36.33;;;7.45;;
24145;SDS011;12308;50.948;4.706;2023-04-25T03:45:03;38.92;;;7.50;;
24145;SDS011;12308;50.948;4.706;2023-04-25T03:47:29;30.20;;;7.85;;
24145;SDS011;12308;50.948;4.706;2023-04-25T03:49:55;34.60;;;8.20;;
24145;SDS011;12308;50.948;4.706;2023-04-25T03:52:20;38.63;;;7.80;;
24145;SDS011;12308;50.948;4.706;2023-04-25T03:54:46;23.70;;;7.50;;
24145;SDS011;12308;50.948;4.706;2023-04-25T03:57:12;35.05;;;8.30;;
24145;SDS011;12308;50.948;4.706;2023-04-25T03:59:37;38.80;;;8.65;;
24145;SDS011;12308;50.948;4.706;2023-04-25T04:02:03;38.83;;;8.15;;
24145;SDS011;12308;50.948;4.706;2023-04-25T04:04:29;42.58;;;9.40;;
24145;SDS011;12308;50.948;4.706;2023-04-25T04:06:55;29.55;;;9.05;;
24145;SDS011;12308;50.948;4.706;2023-04-25T04:09:21;35.53;;;8.18;;
24145;SDS011;12308;50.948;4.706;2023-04-25T04:11:46;26.70;;;7.68;;
24145;SDS011;12308;50.948;4.706;2023-04-25T04:14:12;35.85;;;7.97;;
24145;SDS011;12308;50.948;4.706;2023-04-25T04:16:38;34.25;;;7.90;;
24145;SDS011;12308;50.948;4.706;2023-04-25T04:19:04;36.33;;;9.05;;
24145;SDS011;12308;50.948;4.706;2023-04-25T04:21:29;26.70;;;7.50;;
24145;SDS011;12308;50.948;4.706;2023-04-25T04:23:55;30.75;;;7.93;;
24145;SDS011;12308;50.948;4.706;2023-04-25T04:26:22;35.60;;;8.15;;
24145;SDS011;12308;50.948;4.706;2023-04-25T04:28:51;29.33;;;7.38;;
24145;SDS011;12308;50.948;4.706;2023-04-25T04:31:19;40.70;;;8.40;;
24145;SDS011;12308;50.948;4.706;2023-04-25T04:33:46;20.92;;;7.60;;
24145;SDS011;12308;50.948;4.706;2023-04-25T04:36:12;29.92;;;8.75;;
24145;SDS011;12308;50.948;4.706;2023-04-25T04:38:38;31.42;;;8.65;;
24145;SDS011;12308;50.948;4.706;2023-04-25T04:41:05;29.90;;;7.70;;
24145;SDS011;12308;50.948;4.706;2023-04-25T04:43:31;27.33;;;8.32;;
24145;SDS011;12308;50.948;4.706;2023-04-25T04:45:58;34.50;;;7.82;;
24145;SDS011;12308;50.948;4.706;2023-04-25T04:48:26;23.92;;;7.47;;
24145;SDS011;12308;50.948;4.706;2023-04-25T04:50:51;34.00;;;9.02;;
24145;SDS011;12308;50.948;4.706;2023-04-25T04:53:17;30.90;;;8.00;;
24145;SDS011;12308;50.948;4.706;2023-04-25T04:55:43;34.70;;;7.47;;
24145;SDS011;12308;50.948;4.706;2023-04-25T04:58:09;37.13;;;8.10;;
24145;SDS011;12308;50.948;4.706;2023-04-25T05:00:35;34.25;;;7.90;;
24145;SDS011;12308;50.948;4.706;2023-04-25T05:03:01;26.52;;;7.55;;
24145;SDS011;12308;50.948;4.706;2023-04-25T05:05:26;31.63;;;8.55;;
24145;SDS011;12308;50.948;4.706;2023-04-25T05:07:52;32.97;;;8.55;;
24145;SDS011;12308;50.948;4.706;2023-04-25T05:10:18;28.00;;;7.35;;
24145;SDS011;12308;50.948;4.706;2023-04-25T05:12:44;27.42;;;7.90;;
24145;SDS011;12308;50.948;4.706;2023-04-25T05:15:10;37.08;;;8.38;;
24145;SDS011;12308;50.948;4.706;2023-04-25T05:17:36;25.48;;;9.18;;
24145;SDS011;12308;50.948;4.706;2023-04-25T05:20:01;30.40;;;8.43;;
24145;SDS011;12308;50.948;4.706;2023-04-25T05:22:27;37.03;;;8.50;;
24145;SDS011;12308;50.948;4.706;2023-04-25T05:24:53;33.22;;;8.55;;
24145;SDS011;12308;50.948;4.706;2023-04-25T05:27:19;37.75;;;7.90;;
24145;SDS011;12308;50.948;4.706;2023-04-25T05:29:45;26.70;;;8.20;;
24145;SDS011;12308;50.948;4.706;2023-04-25T05:32:10;33.60;;;8.63;;
24145;SDS011;12308;50.948;4.706;2023-04-25T05:34:36;35.83;;;8.20;;
24145;SDS011;12308;50.948;4.706;2023-04-25T05:37:02;46.83;;;9.38;;
24145;SDS011;12308;50.948;4.706;2023-04-25T05:39:28;33.42;;;8.65;;
24145;SDS011;12308;50.948;4.706;2023-04-25T05:41:54;37.95;;;9.38;;
24145;SDS011;12308;50.948;4.706;2023-04-25T05:44:19;34.85;;;8.98;;
24145;SDS011;12308;50.948;4.706;2023-04-25T05:46:45;33.28;;;9.38;;
24145;SDS011;12308;50.948;4.706;2023-04-25T05:49:11;33.35;;;10.35;;
24145;SDS011;12308;50.948;4.706;2023-04-25T05:51:37;31.63;;;9.77;;
24145;SDS011;12308;50.948;4.706;2023-04-25T05:54:02;35.65;;;9.73;;
24145;SDS011;12308;50.948;4.706;2023-04-25T05:56:28;32.80;;;9.63;;
24145;SDS011;12308;50.948;4.706;2023-04-25T05:58:54;40.10;;;10.38;;
24145;SDS011;12308;50.948;4.706;2023-04-25T06:01:20;35.10;;;10.65;;
24145;SDS011;12308;50.948;4.706;2023-04-25T06:03:47;41.05;;;10.25;;
24145;SDS011;12308;50.948;4.706;2023-04-25T06:06:12;39.78;;;9.65;;
24145;SDS011;12308;50.948;4.706;2023-04-25T06:08:38;29.75;;;9.63;;
24145;SDS011;12308;50.948;4.706;2023-04-25T06:11:05;40.20;;;9.57;;
24145;SDS011;12308;50.948;4.706;2023-04-25T06:13:31;34.08;;;9.13;;
24145;SDS011;12308;50.948;4.706;2023-04-25T06:15:57;33.50;;;9.90;;
24145;SDS011;12308;50.948;4.706;2023-04-25T06:18:22;28.88;;;9.60;;
24145;SDS011;12308;50.948;4.706;2023-04-25T06:20:48;36.38;;;9.88;;
24145;SDS011;12308;50.948;4.706;2023-04-25T06:23:14;34.05;;;9.52;;
24145;SDS011;12308;50.948;4.706;2023-04-25T06:25:39;37.08;;;9.52;;
24145;SDS011;12308;50.948;4.706;2023-04-25T06:28:05;37.28;;;9.82;;
24145;SDS011;12308;50.948;4.706;2023-04-25T06:30:31;32.22;;;9.27;;
24145;SDS011;12308;50.948;4.706;2023-04-25T06:32:56;40.38;;;9.70;;
24145;SDS011;12308;50.948;4.706;2023-04-25T06:35:22;39.05;;;10.15;;
24145;SDS011;12308;50.948;4.706;2023-04-25T06:37:48;28.60;;;9.70;;
24145;SDS011;12308;50.948;4.706;2023-04-25T06:40:13;38.13;;;10.10;;
24145;SDS011;12308;50.948;4.706;2023-04-25T06:42:39;36.55;;;8.48;;
24145;SDS011;12308;50.948;4.706;2023-04-25T06:45:05;33.03;;;9.70;;
24145;SDS011;12308;50.948;4.706;2023-04-25T06:47:31;40.80;;;9.52;;
24145;SDS011;12308;50.948;4.706;2023-04-25T06:49:57;38.95;;;9.68;;
24145;SDS011;12308;50.948;4.706;2023-04-25T06:52:22;27.17;;;9.35;;
24145;SDS011;12308;50.948;4.706;2023-04-25T06:54:48;37.22;;;8.65;;
24145;SDS011;12308;50.948;4.706;2023-04-25T06:57:14;40.78;;;9.15;;
24145;SDS011;12308;50.948;4.706;2023-04-25T06:59:39;33.72;;;8.18;;
24145;SDS011;12308;50.948;4.706;2023-04-25T07:02:05;33.05;;;8.18;;
24145;SDS011;12308;50.948;4.706;2023-04-25T07:04:31;28.05;;;6.80;;
24145;SDS011;12308;50.948;4.706;2023-04-25T07:06:56;34.33;;;7.35;;
24145;SDS011;12308;50.948;4.706;2023-04-25T07:09:23;28.80;;;6.53;;
24145;SDS011;12308;50.948;4.706;2023-04-25T07:11:48;31.52;;;7.10;;
24145;SDS011;12308;50.948;4.706;2023-04-25T07:14:14;27.45;;;6.22;;
24145;SDS011;12308;50.948;4.706;2023-04-25T07:16:40;24.95;;;6.25;;
24145;SDS011;12308;50.948;4.706;2023-04-25T07:19:05;32.40;;;6.90;;
24145;SDS011;12308;50.948;4.706;2023-04-25T07:21:31;25.30;;;6.20;;
24145;SDS011;12308;50.948;4.706;2023-04-25T07:23:57;25.25;;;6.30;;
24145;SDS011;12308;50.948;4.706;2023-04-25T07:26:23;17.40;;;5.65;;
24145;SDS011;12308;50.948;4.706;2023-04-25T07:28:49;30.98;;;6.97;;
24145;SDS011;12308;50.948;4.706;2023-04-25T07:31:18;21.40;;;6.30;;
24145;SDS011;12308;50.948;4.706;2023-04-25T07:33:44;33.22;;;6.88;;
24145;SDS011;12308;50.948;4.706;2023-04-25T07:36:10;26.55;;;7.05;;
24145;SDS011;12308;50.948;4.706;2023-04-25T07:38:37;28.77;;;5.88;;
24145;SDS011;12308;50.948;4.706;2023-04-25T07:41:03;28.58;;;6.25;;
24145;SDS011;12308;50.948;4.706;2023-04-25T07:43:29;25.15;;;6.70;;
24145;SDS011;12308;50.948;4.706;2023-04-25T07:45:55;23.88;;;6.85;;
24145;SDS011;12308;50.948;4.706;2023-04-25T07:48:21;26.30;;;5.97;;
24145;SDS011;12308;50.948;4.706;2023-04-25T07:50:47;24.73;;;6.65;;
24145;SDS011;12308;50.948;4.706;2023-04-25T07:53:13;32.28;;;6.97;;
24145;SDS011;12308;50.948;4.706;2023-04-25T07:55:39;33.40;;;5.82;;
24145;SDS011;12308;50.948;4.706;2023-04-25T07:58:08;18.98;;;5.53;;
24145;SDS011;12308;50.948;4.706;2023-04-25T08:00:35;28.10;;;6.50;;
24145;SDS011;12308;50.948;4.706;2023-04-25T08:03:01;31.60;;;6.00;;
24145;SDS011;12308;50.948;4.706;2023-04-25T08:05:27;18.75;;;5.40;;
24145;SDS011;12308;50.948;4.706;2023-04-25T08:07:53;19.02;;;4.93;;
24145;SDS011;12308;50.948;4.706;2023-04-25T08:10:20;23.73;;;5.32;;
24145;SDS011;12308;50.948;4.706;2023-04-25T08:12:47;21.27;;;4.50;;
24145;SDS011;12308;50.948;4.706;2023-04-25T08:15:14;22.85;;;5.40;;
24145;SDS011;12308;50.948;4.706;2023-04-25T08:17:40;25.33;;;5.03;;
24145;SDS011;12308;50.948;4.706;2023-04-25T08:20:06;18.45;;;4.57;;
24145;SDS011;12308;50.948;4.706;2023-04-25T08:22:32;24.20;;;5.47;;
24145;SDS011;12308;50.948;4.706;2023-04-25T08:24:59;18.10;;;5.22;;
24145;SDS011;12308;50.948;4.706;2023-04-25T08:27:24;22.40;;;4.78;;
24145;SDS011;12308;50.948;4.706;2023-04-25T08:29:50;25.92;;;5.05;;
24145;SDS011;12308;50.948;4.706;2023-04-25T08:32:16;19.48;;;4.72;;
24145;SDS011;12308;50.948;4.706;2023-04-25T08:34:42;20.38;;;4.32;;
24145;SDS011;12308;50.948;4.706;2023-04-25T08:37:09;21.02;;;3.90;;
24145;SDS011;12308;50.948;4.706;2023-04-25T08:39:36;17.70;;;3.70;;
24145;SDS011;12308;50.948;4.706;2023-04-25T08:42:06;18.58;;;4.93;;
24145;SDS011;12308;50.948;4.706;2023-04-25T08:44:35;19.60;;;4.07;;
24145;SDS011;12308;50.948;4.706;2023-04-25T08:47:02;27.05;;;4.43;;
24145;SDS011;12308;50.948;4.706;2023-04-25T08:49:30;22.27;;;4.05;;
24145;SDS011;12308;50.948;4.706;2023-04-25T08:51:59;18.48;;;4.32;;
24145;SDS011;12308;50.948;4.706;2023-04-25T08:54:26;15.18;;;4.20;;
24145;SDS011;12308;50.948;4.706;2023-04-25T08:56:54;17.73;;;4.03;;
24145;SDS011;12308;50.948;4.706;2023-04-25T08:59:20;20.38;;;4.75;;
24145;SDS011;12308;50.948;4.706;2023-04-25T09:01:48;13.65;;;4.22;;
24145;SDS011;12308;50.948;4.706;2023-04-25T09:04:15;15.65;;;3.72;;
24145;SDS011;12308;50.948;4.706;2023-04-25T09:06:41;16.42;;;3.90;;
24145;SDS011;12308;50.948;4.706;2023-04-25T09:09:07;21.95;;;4.38;;
24145;SDS011;12308;50.948;4.706;2023-04-25T09:11:34;11.82;;;3.75;;
24145;SDS011;12308;50.948;4.706;2023-04-25T09:14:11;20.50;;;4.68;;
24145;SDS011;12308;50.948;4.706;2023-04-25T09:16:54;24.38;;;4.30;;
24145;SDS011;12308;50.948;4.706;2023-04-25T09:21:58;17.83;;;3.65;;
24145;SDS011;12308;50.948;4.706;2023-04-25T09:24:39;14.05;;;3.33;;
24145;SDS011;12308;50.948;4.706;2023-04-25T09:27:07;14.98;;;4.05;;
24145;SDS011;12308;50.948;4.706;2023-04-25T09:29:35;14.95;;;3.47;;
24145;SDS011;12308;50.948;4.706;2023-04-25T09:34:45;12.90;;;3.42;;
24145;SDS011;12308;50.948;4.706;2023-04-25T09:37:19;17.90;;;3.70;;
24145;SDS011;12308;50.948;4.706;2023-04-25T09:39:54;16.85;;;3.45;;
24145;SDS011;12308;50.948;4.706;2023-04-25T09:42:30;16.13;;;3.03;;
24145;SDS011;12308;50.948;4.706;2023-04-25T09:44:57;12.32;;;2.60;;
24145;SDS011;12308;50.948;4.706;2023-04-25T09:47:25;14.80;;;2.55;;
24145;SDS011;12308;50.948;4.706;2023-04-25T09:49:52;16.20;;;2.63;;
24145;SDS011;12308;50.948;4.706;2023-04-25T09:52:24;15.88;;;3.40;;
24145;SDS011;12308;50.948;4.706;2023-04-25T09:54:50;12.98;;;2.45;;
24145;SDS011;12308;50.948;4.706;2023-04-25T09:57:21;8.73;;;2.90;;
24145;SDS011;12308;50.948;4.706;2023-04-25T09:59:54;7.60;;;1.95;;
24145;SDS011;12308;50.948;4.706;2023-04-25T10:02:21;8.02;;;2.08;;
24145;SDS011;12308;50.948;4.706;2023-04-25T10:04:49;11.90;;;2.53;;
24145;SDS011;12308;50.948;4.706;2023-04-25T10:07:18;6.63;;;2.50;;
24145;SDS011;12308;50.948;4.706;2023-04-25T10:09:47;11.32;;;2.65;;
24145;SDS011;12308;50.948;4.706;2023-04-25T10:12:15;5.90;;;1.98;;
24145;SDS011;12308;50.948;4.706;2023-04-25T10:14:42;9.50;;;2.17;;
24145;SDS011;12308;50.948;4.706;2023-04-25T10:17:08;9.23;;;2.55;;
24145;SDS011;12308;50.948;4.706;2023-04-25T10:19:36;10.18;;;2.35;;
24145;SDS011;12308;50.948;4.706;2023-04-25T10:22:11;5.65;;;2.17;;
24145;SDS011;12308;50.948;4.706;2023-04-25T10:24:41;7.50;;;2.25;;
24145;SDS011;12308;50.948;4.706;2023-04-25T10:27:08;7.43;;;2.28;;
24145;SDS011;12308;50.948;4.706;2023-04-25T10:29:34;6.53;;;1.95;;
24145;SDS011;12308;50.948;4.706;2023-04-25T10:32:00;10.65;;;2.40;;
24145;SDS011;12308;50.948;4.706;2023-04-25T10:34:40;8.40;;;2.80;;
24145;SDS011;12308;50.948;4.706;2023-04-25T10:37:10;6.93;;;2.42;;
24145;SDS011;12308;50.948;4.706;2023-04-25T10:39:38;12.60;;;2.20;;
24145;SDS011;12308;50.948;4.706;2023-04-25T10:42:06;6.97;;;1.80;;
24145;SDS011;12308;50.948;4.706;2023-04-25T10:44:36;10.98;;;2.60;;
24145;SDS011;12308;50.948;4.706;2023-04-25T10:47:03;6.20;;;1.90;;
24145;SDS011;12308;50.948;4.706;2023-04-25T10:55:04;13.40;;;3.17;;
24145;SDS011;12308;50.948;4.706;2023-04-25T10:57:40;12.65;;;2.80;;
24145;SDS011;12308;50.948;4.706;2023-04-25T11:00:14;11.93;;;2.53;;
24145;SDS011;12308;50.948;4.706;2023-04-25T11:02:48;7.97;;;2.22;;
24145;SDS011;12308;50.948;4.706;2023-04-25T11:05:19;12.88;;;2.50;;
24145;SDS011;12308;50.948;4.706;2023-04-25T11:07:50;10.73;;;2.40;;
24145;SDS011;12308;50.948;4.706;2023-04-25T11:12:44;10.50;;;2.80;;
24145;SDS011;12308;50.948;4.706;2023-04-25T11:15:11;17.15;;;2.72;;
24145;SDS011;12308;50.948;4.706;2023-04-25T11:17:37;10.63;;;2.97;;
24145;SDS011;12308;50.948;4.706;2023-04-25T11:20:05;9.32;;;2.47;;
24145;SDS011;12308;50.948;4.706;2023-04-25T11:22:37;9.68;;;2.70;;
24145;SDS011;12308;50.948;4.706;2023-04-25T11:25:06;11.15;;;3.13;;
24145;SDS011;12308;50.948;4.706;2023-04-25T11:30:22;9.65;;;1.70;;
24145;SDS011;12308;50.948;4.706;2023-04-25T11:32:49;10.68;;;2.28;;
24145;SDS011;12308;50.948;4.706;2023-04-25T11:35:15;13.25;;;2.40;;
24145;SDS011;12308;50.948;4.706;2023-04-25T11:37:41;9.82;;;2.60;;
24145;SDS011;12308;50.948;4.706;2023-04-25T11:40:08;12.05;;;2.80;;
24145;SDS011;12308;50.948;4.706;2023-04-25T11:42:38;9.90;;;2.60;;
24145;SDS011;12308;50.948;4.706;2023-04-25T11:45:08;9.82;;;2.53;;
24145;SDS011;12308;50.948;4.706;2023-04-25T11:47:34;10.73;;;2.95;;
24145;SDS011;12308;50.948;4.706;2023-04-25T11:50:04;15.07;;;4.10;;
24145;SDS011;12308;50.948;4.706;2023-04-25T11:52:36;9.75;;;2.38;;
24145;SDS011;12308;50.948;4.706;2023-04-25T11:55:08;10.50;;;2.28;;
24145;SDS011;12308;50.948;4.706;2023-04-25T11:57:37;10.60;;;2.05;;
24145;SDS011;12308;50.948;4.706;2023-04-25T12:02:36;6.90;;;1.90;;
24145;SDS011;12308;50.948;4.706;2023-04-25T12:05:05;7.07;;;2.50;;
24145;SDS011;12308;50.948;4.706;2023-04-25T12:07:33;10.13;;;2.72;;
24145;SDS011;12308;50.948;4.706;2023-04-25T12:10:03;6.32;;;2.22;;
24145;SDS011;12308;50.948;4.706;2023-04-25T12:12:33;10.00;;;2.42;;
24145;SDS011;12308;50.948;4.706;2023-04-25T12:15:10;4.80;;;2.10;;
24145;SDS011;12308;50.948;4.706;2023-04-25T12:17:36;8.80;;;2.55;;
24145;SDS011;12308;50.948;4.706;2023-04-25T12:20:10;6.40;;;2.08;;
24145;SDS011;12308;50.948;4.706;2023-04-25T12:22:45;8.35;;;2.67;;
24145;SDS011;12308;50.948;4.706;2023-04-25T12:25:12;15.50;;;3.03;;
24145;SDS011;12308;50.948;4.706;2023-04-25T12:30:55;7.72;;;1.88;;
24145;SDS011;12308;50.948;4.706;2023-04-25T12:33:31;12.23;;;2.75;;
24145;SDS011;12308;50.948;4.706;2023-04-25T12:36:02;8.57;;;2.97;;
24145;SDS011;12308;50.948;4.706;2023-04-25T12:38:36;8.75;;;2.50;;
24145;SDS011;12308;50.948;4.706;2023-04-25T12:41:06;9.02;;;1.95;;
24145;SDS011;12308;50.948;4.706;2023-04-25T12:43:32;9.52;;;2.20;;
24145;SDS011;12308;50.948;4.706;2023-04-25T12:45:58;14.30;;;2.17;;
24145;SDS011;12308;50.948;4.706;2023-04-25T12:48:23;6.32;;;2.00;;
24145;SDS011;12308;50.948;4.706;2023-04-25T12:50:50;8.30;;;2.08;;
24145;SDS011;12308;50.948;4.706;2023-04-25T12:53:19;7.53;;;2.10;;
24145;SDS011;12308;50.948;4.706;2023-04-25T12:55:46;5.68;;;1.75;;
24145;SDS011;12308;50.948;4.706;2023-04-25T12:58:13;10.10;;;2.13;;
24145;SDS011;12308;50.948;4.706;2023-04-25T13:00:39;9.10;;;1.65;;
24145;SDS011;12308;50.948;4.706;2023-04-25T13:03:05;8.48;;;2.20;;
24145;SDS011;12308;50.948;4.706;2023-04-25T13:05:30;7.47;;;1.70;;
24145;SDS011;12308;50.948;4.706;2023-04-25T13:07:56;4.00;;;1.48;;
24145;SDS011;12308;50.948;4.706;2023-04-25T13:10:22;11.68;;;1.83;;
24145;SDS011;12308;50.948;4.706;2023-04-25T13:12:48;7.28;;;1.95;;
24145;SDS011;12308;50.948;4.706;2023-04-25T13:15:14;8.48;;;1.80;;
24145;SDS011;12308;50.948;4.706;2023-04-25T13:17:40;9.27;;;1.90;;
24145;SDS011;12308;50.948;4.706;2023-04-25T13:20:07;10.00;;;1.85;;
24145;SDS011;12308;50.948;4.706;2023-04-25T13:22:34;7.60;;;2.47;;
24145;SDS011;12308;50.948;4.706;2023-04-25T13:25:02;6.32;;;1.63;;
24145;SDS011;12308;50.948;4.706;2023-04-25T13:27:28;10.75;;;2.05;;
24145;SDS011;12308;50.948;4.706;2023-04-25T13:29:55;7.43;;;1.88;;
24145;SDS011;12308;50.948;4.706;2023-04-25T13:32:21;12.88;;;2.33;;
24145;SDS011;12308;50.948;4.706;2023-04-25T13:34:46;10.27;;;1.85;;
24145;SDS011;12308;50.948;4.706;2023-04-25T13:37:12;10.20;;;3.00;;
24145;SDS011;12308;50.948;4.706;2023-04-25T13:39:38;6.70;;;2.47;;
24145;SDS011;12308;50.948;4.706;2023-04-25T13:42:03;9.13;;;2.33;;
24145;SDS011;12308;50.948;4.706;2023-04-25T13:44:29;7.22;;;2.42;;
24145;SDS011;12308;50.948;4.706;2023-04-25T13:46:55;13.10;;;2.30;;
24145;SDS011;12308;50.948;4.706;2023-04-25T13:49:20;5.82;;;1.80;;
24145;SDS011;12308;50.948;4.706;2023-04-25T13:51:48;8.38;;;1.73;;
24145;SDS011;12308;50.948;4.706;2023-04-25T13:54:13;7.97;;;2.13;;
24145;SDS011;12308;50.948;4.706;2023-04-25T13:56:39;5.20;;;1.60;;
24145;SDS011;12308;50.948;4.706;2023-04-25T13:59:07;3.72;;;1.73;;
24145;SDS011;12308;50.948;4.706;2023-04-25T14:01:32;8.77;;;2.17;;
24145;SDS011;12308;50.948;4.706;2023-04-25T14:04:00;9.30;;;1.95;;
24145;SDS011;12308;50.948;4.706;2023-04-25T14:06:28;10.07;;;1.98;;
24145;SDS011;12308;50.948;4.706;2023-04-25T14:08:54;5.68;;;1.77;;
24145;SDS011;12308;50.948;4.706;2023-04-25T14:11:21;8.85;;;1.73;;
24145;SDS011;12308;50.948;4.706;2023-04-25T14:13:47;7.45;;;2.22;;
24145;SDS011;12308;50.948;4.706;2023-04-25T14:16:14;7.55;;;1.80;;
24145;SDS011;12308;50.948;4.706;2023-04-25T14:18:40;8.05;;;2.00;;
24145;SDS011;12308;50.948;4.706;2023-04-25T14:21:06;11.00;;;2.03;;
24145;SDS011;12308;50.948;4.706;2023-04-25T14:23:32;10.88;;;2.40;;
24145;SDS011;12308;50.948;4.706;2023-04-25T14:25:58;7.88;;;1.73;;
24145;SDS011;12308;50.948;4.706;2023-04-25T14:28:23;7.53;;;1.83;;
24145;SDS011;12308;50.948;4.706;2023-04-25T14:30:49;11.40;;;2.03;;
24145;SDS011;12308;50.948;4.706;2023-04-25T14:33:15;5.68;;;1.80;;
24145;SDS011;12308;50.948;4.706;2023-04-25T14:35:40;5.28;;;1.70;;
24145;SDS011;12308;50.948;4.706;2023-04-25T14:38:06;8.35;;;2.03;;
24145;SDS011;12308;50.948;4.706;2023-04-25T14:40:33;11.75;;;2.30;;
24145;SDS011;12308;50.948;4.706;2023-04-25T14:42:58;7.68;;;1.95;;
24145;SDS011;12308;50.948;4.706;2023-04-25T14:45:24;8.40;;;2.13;;
24145;SDS011;12308;50.948;4.706;2023-04-25T14:47:50;9.10;;;2.08;;
24145;SDS011;12308;50.948;4.706;2023-04-25T14:50:16;12.50;;;2.30;;
24145;SDS011;12308;50.948;4.706;2023-04-25T14:52:43;10.15;;;2.13;;
24145;SDS011;12308;50.948;4.706;2023-04-25T14:55:10;8.05;;;1.92;;